• Join FlightAware (Why Join?)
  • Login
  • US Flag 
03:19AM EDT


 

Airport Tracker/Info


-or-


 

Live Flight TrackerFlight Track Log ✈ SLI2070 ✈ 17-Jun-2013 ✈ MMMX / MEX - MMLP / LAP

Flight Track Log - Related Links

Times and Time Zones

All times are in EDT time to prevent confusion due to time zone crossing. See the SLI2070 flight status page for this flight to view local times or setup timezone preferences in your user account.

Time Position Orientation Groundspeed Altitude Reporting Facility
EDT Latitude Longitude Course Direction KTS MPH feet Rate Location/Type
10:58AM 20.0566 -100.4447 296° West  Level Estimated
10:59AM 20.1039 -100.5508 295° West  Level Estimated
11:00AM 20.1511 -100.6569 295° West  Level Estimated
11:01AM 20.1982 -100.7630 295° West  Level Estimated
11:02AM 20.2453 -100.8693 295° West  Level Estimated
11:03AM 20.2923 -100.9756 295° West  Level Estimated
11:04AM 20.3393 -101.0819 295° West  Level Estimated
11:05AM 20.3862 -101.1883 295° West  Level Estimated
11:06AM 20.4330 -101.2948 295° West  Level Estimated
11:07AM 20.4798 -101.4014 295° West  Level Estimated
11:08AM 20.5265 -101.5080 295° West  Level Estimated
11:09AM 20.5731 -101.6146 295° West  Level Estimated
11:10AM 20.6197 -101.7214 295° West  Level Estimated
11:11AM 20.6662 -101.8282 295° West  Level Estimated
11:12AM 20.7126 -101.9351 295° West  Level Estimated
11:13AM 20.7590 -102.0420 295° West  Level Estimated
11:14AM 20.8053 -102.1490 295° West  Level Estimated
11:15AM 20.8516 -102.2561 295° West  Level Estimated
11:16AM 20.8977 -102.3632 295° West  Level Estimated
11:17AM 20.9438 -102.4704 295° West  Level Estimated
11:18AM 20.9899 -102.5777 295° West  Level Estimated
11:19AM 21.0359 -102.6850 295° West  Level Estimated
11:20AM 21.0818 -102.7924 295° West  Level Estimated
11:21AM 21.1276 -102.8999 295° West  Level Estimated
11:22AM 21.1734 -103.0074 295° West  Level Estimated
11:23AM 21.2191 -103.1150 295° West  Level Estimated
11:24AM 21.2647 -103.2227 294° West  Level Estimated
11:25AM 21.3102 -103.3304 294° West  Level Estimated
11:26AM 21.3557 -103.4382 294° West  Level Estimated
11:27AM 21.4012 -103.5461 294° West  Level Estimated
11:28AM 21.4465 -103.6540 294° West  Level Estimated
11:29AM 21.4918 -103.7620 294° West  Level Estimated
11:30AM 21.5371 -103.8701 294° West  Level Estimated
11:31AM 21.5822 -103.9782 294° West  Level Estimated
11:32AM 21.6273 -104.0864 294° West  Level Estimated
11:33AM 21.6723 -104.1947 294° West  Level Estimated
11:34AM 21.7172 -104.3030 294° West  Level Estimated
11:35AM 21.7621 -104.4115 294° West  Level Estimated
11:36AM 21.8069 -104.5199 294° West  Level Estimated
11:37AM 21.8516 -104.6285 294° West  Level Estimated
11:38AM 21.8963 -104.7371 294° West  Level Estimated
11:39AM 21.9409 -104.8457 294° West  Level Estimated
11:40AM 21.9854 -104.9545 294° West  Level Estimated
11:41AM 22.0298 -105.0633 294° West  Level Estimated
11:42AM 22.0742 -105.1722 294° West  Level Estimated
11:43AM 22.1185 -105.2811 294° West  Level Estimated
11:44AM 22.1627 -105.3902 294° West  Level Estimated
11:45AM 22.2069 -105.4993 294° West  Level Estimated
11:46AM 22.2510 -105.6084 294° West  Level Estimated
11:47AM 22.2950 -105.7176 294° West  Level Estimated
11:48AM 22.3389 -105.8269 294° West  Level Estimated
11:49AM 22.3828 -105.9363 293° West  Level Estimated
11:50AM 22.4265 -106.0457 293° West  Level Estimated
11:51AM 22.4703 -106.1552 293° West  Level Estimated
11:52AM 22.5139 -106.2648 293° West  Level Estimated
11:53AM 22.5575 -106.3744 293° West  Level Estimated
11:54AM 22.6010 -106.4841 293° West  Level Estimated
11:55AM 22.6444 -106.5939 293° West  Level Estimated
11:56AM 22.6877 -106.7038 293° West  Level Estimated
11:57AM 22.7310 -106.8137 293° West  Level Estimated
11:58AM 22.7742 -106.9237 293° West  Level Estimated
11:59AM 22.8173 -107.0337 293° West  Level Estimated
12:00PM 22.8603 -107.1438 293° West  Level Estimated
12:01PM 22.9033 -107.2540 293° West  Level Estimated
12:02PM 22.9462 -107.3643 293° West  Level Estimated
12:03PM 22.9890 -107.4746 293° West  Level Estimated
12:04PM 23.0317 -107.5850 293° West  Level Estimated
12:05PM 23.0744 -107.6955 293° West  Level Estimated
12:06PM 23.1170 -107.8060 293° West  Level Estimated
12:07PM 23.1595 -107.9166 293° West  Level Estimated
12:08PM 23.2019 -108.0273 293° West  Level Estimated
12:09PM 23.2443 -108.1381 293° West  Level Estimated
12:10PM 23.2865 -108.2489 293° West  Level Estimated
12:11PM 23.3287 -108.3598 293° West  Level Estimated
12:12PM 23.3708 -108.4707 292° West  Level Estimated
12:13PM 23.4129 -108.5818 292° West  Level Estimated
12:14PM 23.4548 -108.6929 292° West  Level Estimated
12:15PM 23.4967 -108.8041 292° West  Level Estimated
12:16PM 23.5385 -108.9153 292° West  Level Estimated
12:17PM 23.5802 -109.0266 292° West  Level Estimated
12:18PM 23.6219 -109.1380 292° West  Level Estimated
12:19PM 23.6635 -109.2495 292° West  Level Estimated
12:20PM 23.7050 -109.3610 292° West  Level Estimated
12:21PM 23.7464 -109.4726 292° West  Level Estimated
12:22PM 23.7877 -109.5843 292° West  Level Estimated
12:23PM 23.8289 -109.6960 292° West  Level Estimated
12:24PM 23.8701 -109.8078 292° West  Level Estimated
12:25PM 23.9112 -109.9197 292° West  Level Estimated
12:26PM 23.9522 -110.0317 292° West  Level Estimated
12:27PM 23.9931 -110.1437 292° West  Level Estimated
12:28PM 24.0339 -110.2558 292° West  Level Estimated
12:29PM 24.0727 -110.3625 292° West  Level Estimated
12:30PM 24.0727 -110.3625 49° Northeast  Level Estimated
12:31PM 24.0727 -110.3625 49° Northeast  Level Estimated
12:32PM 24.0727 -110.3625 49° Northeast  Level Estimated
12:33PM 24.0727 -110.3625 49° Northeast  Level Estimated
12:34PM 24.0727 -110.3625 49° Northeast  Level Estimated
12:35PM 24.0727 -110.3625 49° Northeast  Level Estimated
12:36PM 24.0727 -110.3625 49° Northeast  Level Estimated
12:37PM 24.0727 -110.3625 49° Northeast  Level Estimated
12:38PM 24.0727 -110.3625 49° Northeast  Level Estimated
12:39PM 24.0727 -110.3625 49° Northeast  Level Estimated
12:40PM 24.0727 -110.3625 49° Northeast  Level Estimated
12:41PM 24.0727 -110.3625 49° Northeast  Level Estimated
12:42PM 24.0727 -110.3625 49° Northeast  Level Estimated
12:43PM 24.0727 -110.3625 49° Northeast  Level Estimated
12:44PM 24.0727 -110.3625 49° Northeast  Level Estimated
12:45PM 24.0727 -110.3625 49° Northeast  Level Estimated